Observation data for Haskell on 04/22/2019      Previous  Date  Next       Current Mesonet Observations  Soil Data  Daily Summary Page  Observations in Plain Language
KHA1 220500Z 18011G17KT 23/14 A2985 RMK A01 T02270143  RH  062%=      5-min Rain = 0
KHA1 220505Z 17012G18KT 23/14 A2985 RMK A01 T02260143  RH  062%=      5-min Rain = 0
KHA1 220510Z 18010G17KT 23/14 A2986 RMK A01 T02250144  RH  063%=      5-min Rain = 0
KHA1 220515Z 18011G17KT 23/14 A2986 RMK A01 T02250144  RH  063%=      5-min Rain = 0
KHA1 220520Z 18010KT 22/14 A2986 RMK A01 T02230144  RH  063%=      5-min Rain = 0
KHA1 220525Z 18010KT 22/14 A2986 RMK A01 T02210144  RH  064%=      5-min Rain = 0
KHA1 220530Z 18010G16KT 22/15 A2986 RMK A01 T02200145  RH  065%=      5-min Rain = 0
KHA1 220535Z 18009KT 22/15 A2986 RMK A01 T02200145  RH  065%=      5-min Rain = 0
KHA1 220540Z 18009KT 22/15 A2986 RMK A01 T02190145  RH  065%=      5-min Rain = 0
KHA1 220545Z 18009G14KT 22/15 A2986 RMK A01 T02180145  RH  066%=      5-min Rain = 0
KHA1 220550Z 18009G14KT 22/15 A2986 RMK A01 T02180145  RH  066%=      5-min Rain = 0
KHA1 220555Z 18010G15KT 22/15 A2987 RMK A01 T02180145  RH  066%=      5-min Rain = 0
KHA1 220600Z 18010KT 22/15 A2987 RMK A01 T02160145  RH  067%=      5-min Rain = 0
KHA1 220605Z 18010KT 22/15 A2987 RMK A01 T02160145  RH  067%=      5-min Rain = 0
KHA1 220610Z 18010KT 22/15 A2987 RMK A01 T02160145  RH  067%=      5-min Rain = 0
KHA1 220615Z 18010G16KT 22/15 A2987 RMK A01 T02150145  RH  067%=      5-min Rain = 0
KHA1 220620Z 18010G16KT 22/15 A2987 RMK A01 T02160145  RH  067%=      5-min Rain = 0
KHA1 220625Z 19010KT 22/15 A2987 RMK A01 T02150146  RH  068%=      5-min Rain = 0
KHA1 220630Z 18010KT 21/15 A2987 RMK A01 T02140146  RH  068%=      5-min Rain = 0
KHA1 220635Z 18010KT 21/15 A2987 RMK A01 T02140146  RH  068%=      5-min Rain = 0
KHA1 220640Z 18009KT 21/15 A2987 RMK A01 T02140146  RH  068%=      5-min Rain = 0
KHA1 220645Z 18010G15KT 21/15 A2987 RMK A01 T02130146  RH  068%=      5-min Rain = 0
KHA1 220650Z 18009KT 21/15 A2987 RMK A01 T02130146  RH  069%=      5-min Rain = 0
KHA1 220655Z 18009KT 21/15 A2987 RMK A01 T02120146  RH  069%=      5-min Rain = 0
KHA1 220700Z 18008KT 21/15 A2987 RMK A01 T02110146  RH  069%=      5-min Rain = 0
KHA1 220705Z 18009KT 21/15 A2987 RMK A01 T02100146  RH  070%=      5-min Rain = 0
KHA1 220710Z 17008KT 21/15 A2987 RMK A01 T02090146  RH  070%=      5-min Rain = 0
KHA1 220715Z 17008KT 21/15 A2988 RMK A01 T02090146  RH  071%=      5-min Rain = 0
KHA1 220720Z 17007KT 21/15 A2988 RMK A01 T02070146  RH  071%=      5-min Rain = 0
KHA1 220725Z 16008KT 20/15 A2988 RMK A01 T02040146  RH  072%=      5-min Rain = 0
KHA1 220730Z 17009KT 21/15 A2988 RMK A01 T02050146  RH  072%=      5-min Rain = 0
KHA1 220735Z 18009KT 20/15 A2988 RMK A01 T02040146  RH  073%=      5-min Rain = 0
KHA1 220740Z 18009KT 20/15 A2988 RMK A01 T02020147  RH  074%=      5-min Rain = 0
KHA1 220745Z 19011G16KT 20/15 A2988 RMK A01 T02010147  RH  074%=      5-min Rain = 0
KHA1 220750Z 19012KT 20/15 A2987 RMK A01 T02000147  RH  075%=      5-min Rain = 0
KHA1 220755Z 20011KT 20/15 A2988 RMK A01 T01990148  RH  076%=      5-min Rain = 0
KHA1 220800Z 20011KT 20/15 A2988 RMK A01 T01970148  RH  076%=      5-min Rain = 0
KHA1 220805Z 19012KT 20/15 A2988 RMK A01 T01960148  RH  077%=      5-min Rain = 0
KHA1 220810Z 19012KT 20/15 A2987 RMK A01 T01970149  RH  077%=      5-min Rain = 0
KHA1 220815Z 19011KT 20/15 A2987 RMK A01 T01980149  RH  077%=      5-min Rain = 0
KHA1 220820Z 18011KT 20/15 A2987 RMK A01 T01970150  RH  077%=      5-min Rain = 0
KHA1 220825Z 18010G15KT 20/15 A2987 RMK A01 T01980151  RH  078%=      5-min Rain = 0
KHA1 220830Z 18009KT 20/15 A2987 RMK A01 T01980152  RH  078%=      5-min Rain = 0
KHA1 220835Z 18009KT 20/15 A2986 RMK A01 T01950150  RH  079%=      5-min Rain = 0
KHA1 220840Z 18008KT 19/15 A2986 RMK A01 T01910149  RH  080%=      5-min Rain = 0
KHA1 220845Z 18009KT 19/15 A2986 RMK A01 T01880148  RH  081%=      5-min Rain = 0
KHA1 220850Z 18009KT 19/15 A2986 RMK A01 T01870148  RH  082%=      5-min Rain = 0
KHA1 220855Z 18010KT 19/15 A2986 RMK A01 T01870149  RH  082%=      5-min Rain = 0
KHA1 220900Z 18009KT 19/15 A2987 RMK A01 T01880150  RH  082%=      5-min Rain = 0
KHA1 220905Z 18009KT 19/15 A2987 RMK A01 T01880150  RH  082%=      5-min Rain = 0
KHA1 220910Z 18009KT 19/15 A2987 RMK A01 T01880150  RH  082%=      5-min Rain = 0
KHA1 220915Z 18009KT 19/15 A2987 RMK A01 T01880151  RH  083%=      5-min Rain = 0
KHA1 220920Z 18009KT 19/15 A2987 RMK A01 T01870151  RH  083%=      5-min Rain = 0
KHA1 220925Z 18009KT 19/15 A2987 RMK A01 T01850151  RH  084%=      5-min Rain = 0
KHA1 220930Z 18009KT 18/15 A2987 RMK A01 T01840150  RH  084%=      5-min Rain = 0
KHA1 220935Z 18009KT 18/15 A2988 RMK A01 T01830150  RH  085%=      5-min Rain = 0
KHA1 220940Z 18010KT 18/15 A2988 RMK A01 T01830150  RH  085%=      5-min Rain = 0
KHA1 220945Z 18009KT 18/15 A2987 RMK A01 T01840151  RH  085%=      5-min Rain = 0
KHA1 220950Z 18010KT 18/15 A2988 RMK A01 T01840152  RH  086%=      5-min Rain = 0
KHA1 220955Z 18011KT 19/15 A2988 RMK A01 T01850154  RH  086%=      5-min Rain = 0
KHA1 221000Z 18010KT 19/15 A2988 RMK A01 T01860154  RH  086%=      5-min Rain = 0
KHA1 221005Z 18009KT 19/16 A2988 RMK A01 T01870155  RH  086%=      5-min Rain = 0
KHA1 221010Z 18009KT 19/16 A2988 RMK A01 T01870155  RH  086%=      5-min Rain = 0
KHA1 221015Z 17009G15KT 19/16 A2988 RMK A01 T01860155  RH  086%=      5-min Rain = 0
KHA1 221020Z 17010KT 19/16 A2988 RMK A01 T01860155  RH  086%=      5-min Rain = 0
KHA1 221025Z 18009KT 19/15 A2988 RMK A01 T01850154  RH  086%=      5-min Rain = 0
KHA1 221030Z 18009G14KT 18/15 A2988 RMK A01 T01840154  RH  087%=      5-min Rain = 0
KHA1 221035Z 17009KT 18/16 A2988 RMK A01 T01840155  RH  087%=      5-min Rain = 0
KHA1 221040Z 17010KT 18/16 A2988 RMK A01 T01840155  RH  087%=      5-min Rain = 0
KHA1 221045Z 17009KT 18/16 A2988 RMK A01 T01840155  RH  087%=      5-min Rain = 0
KHA1 221050Z 16008KT 18/15 A2988 RMK A01 T01820154  RH  088%=      5-min Rain = 0
KHA1 221055Z 17009KT 18/15 A2988 RMK A01 T01800154  RH  089%=      5-min Rain = 0
KHA1 221100Z 17008KT 18/15 A2988 RMK A01 T01790153  RH  089%=      5-min Rain = 0
KHA1 221105Z 17009KT 18/15 A2989 RMK A01 T01790154  RH  089%=      5-min Rain = 0
KHA1 221110Z 17009G14KT 18/15 A2989 RMK A01 T01790153  RH  089%=      5-min Rain = 0
KHA1 221115Z 16008G13KT 18/15 A2989 RMK A01 T01780153  RH  089%=      5-min Rain = 0
KHA1 221120Z 16009KT 18/15 A2989 RMK A01 T01770153  RH  090%=      5-min Rain = 0
KHA1 221125Z 17009KT 18/15 A2989 RMK A01 T01770153  RH  090%=      5-min Rain = 0
KHA1 221130Z 17009KT 18/15 A2989 RMK A01 T01760153  RH  090%=      5-min Rain = 0
KHA1 221135Z 16009KT 18/15 A2989 RMK A01 T01760152  RH  090%=      5-min Rain = 0
KHA1 221140Z 16008G14KT 18/15 A2989 RMK A01 T01750152  RH  090%=      5-min Rain = 0
KHA1 221145Z 16007KT 17/15 A299 RMK A01 T01740152  RH  091%=      5-min Rain = 0
KHA1 221150Z 16008KT 17/15 A299 RMK A01 T01740151  RH  090%=      5-min Rain = 0
KHA1 221155Z 16008G13KT 17/15 A299 RMK A01 T01740151  RH  090%=      5-min Rain = 0
KHA1 221200Z 16007KT 17/15 A299 RMK A01 T01740151  RH  091%=      5-min Rain = 0
KHA1 221205Z 16007KT 17/15 A299 RMK A01 T01730151  RH  091%=      5-min Rain = 0
KHA1 221210Z 15007KT 17/15 A299 RMK A01 T01720150  RH  091%=      5-min Rain = 0
KHA1 221215Z 16007KT 17/15 A2991 RMK A01 T01710150  RH  091%=      5-min Rain = 0
KHA1 221220Z 17007KT 17/15 A2991 RMK A01 T01720150  RH  091%=      5-min Rain = 0
KHA1 221225Z 16007KT 17/15 A2991 RMK A01 T01720149  RH  091%=      5-min Rain = 0
KHA1 221230Z 16007KT 17/15 A2991 RMK A01 T01720149  RH  091%=      5-min Rain = 0
KHA1 221235Z 16007KT 17/15 A2991 RMK A01 T01720149  RH  090%=      5-min Rain = 0
KHA1 221240Z 17007KT 17/15 A2992 RMK A01 T01720150  RH  091%=      5-min Rain = 0
KHA1 221245Z 17008KT 17/15 A2992 RMK A01 T01720149  RH  090%=      5-min Rain = 0
KHA1 221250Z 16007KT 17/15 A2992 RMK A01 T01730149  RH  090%=      5-min Rain = 0
KHA1 221255Z 16006KT 17/15 A2992 RMK A01 T01730149  RH  090%=      5-min Rain = 0
KHA1 221300Z 16007KT 17/15 A2993 RMK A01 T01730149  RH  090%=      5-min Rain = 0
KHA1 221305Z 16006KT 17/15 A2993 RMK A01 T01740150  RH  090%=      5-min Rain = 0
KHA1 221310Z 16006KT 17/15 A2994 RMK A01 T01740149  RH  089%=      5-min Rain = 0
KHA1 221315Z 16007KT 18/15 A2994 RMK A01 T01750150  RH  089%=      5-min Rain = 0
KHA1 221320Z 17009KT 18/15 A2994 RMK A01 T01760149  RH  089%=      5-min Rain = 0
KHA1 221325Z 17007KT 18/15 A2994 RMK A01 T01760149  RH  088%=      5-min Rain = 0
KHA1 221330Z 17006KT 18/15 A2995 RMK A01 T01780150  RH  088%=      5-min Rain = 0
KHA1 221335Z 23003KT 18/15 A2997 RMK A01 T01790150  RH  087%=      5-min Rain = 0
KHA1 221340Z 31004KT 18/15 A2999 RMK A01 T01820152  RH  086%=      5-min Rain = 0
KHA1 221345Z 19003KT 18/15 A2998 RMK A01 T01840153  RH  086%=      5-min Rain = 0
KHA1 221350Z 25002KT 19/15 A2999 RMK A01 T01870154  RH  085%=      5-min Rain = 0
KHA1 221355Z 28003KT 19/16 A2999 RMK A01 T01890155  RH  084%=      5-min Rain = 0
KHA1 221400Z 18003KT 19/15 A2998 RMK A01 T01890154  RH  084%=      5-min Rain = 0
KHA1 221405Z 31003KT 19/15 A2999 RMK A01 T01890154  RH  084%=      5-min Rain = 0
KHA1 221410Z 18001KT 19/15 A2999 RMK A01 T01890153  RH  083%=      5-min Rain = 0
KHA1 221415Z 21001KT 19/15 A2999 RMK A01 T01890153  RH  084%=      5-min Rain = 0
KHA1 221420Z 25001KT 19/16 A30 RMK A01 T01910155  RH  084%=      5-min Rain = 0
KHA1 221425Z 22002KT 19/16 A2999 RMK A01 T01910156  RH  084%=      5-min Rain = 0
KHA1 221430Z 27002KT 19/16 A30 RMK A01 T01910155  RH  083%=      5-min Rain = 0
KHA1 221435Z 22003KT 19/16 A2999 RMK A01 T01910156  RH  084%=      5-min Rain = 0
KHA1 221440Z 27002KT 20/16 A30 RMK A01 T01960157  RH  082%=      5-min Rain = 0
KHA1 221445Z 26003KT 20/16 A30 RMK A01 T01990158  RH  081%=      5-min Rain = 0
KHA1 221450Z 28002KT 20/16 A2999 RMK A01 T02040158  RH  078%=      5-min Rain = 0
KHA1 221455Z 31003KT 20/16 A30 RMK A01 T02020155  RH  078%=      5-min Rain = 0
KHA1 221500Z 20004KT 20/16 A2999 RMK A01 T01980158  RH  081%=      5-min Rain = 0
KHA1 221505Z 24003KT 20/16 A30 RMK A01 T01990157  RH  081%=      5-min Rain = 0
KHA1 221510Z 22003KT 20/16 A30 RMK A01 T01990157  RH  080%=      5-min Rain = 0
KHA1 221515Z 19007KT 20/16 A2999 RMK A01 T02030159  RH  080%=      5-min Rain = 0
KHA1 221520Z 22004KT 21/16 A2999 RMK A01 T02060158  RH  077%=      5-min Rain = 0
KHA1 221525Z 26003KT 21/15 A30 RMK A01 T02050154  RH  076%=      5-min Rain = 0
KHA1 221530Z 20005KT 20/16 A2999 RMK A01 T02030159  RH  079%=      5-min Rain = 0
KHA1 221535Z 21004KT 21/16 A2999 RMK A01 T02060159  RH  078%=      5-min Rain = 0
KHA1 221540Z 27001KT 21/16 A2999 RMK A01 T02070155  RH  076%=      5-min Rain = 0
KHA1 221545Z 26000KT 21/16 A2999 RMK A01 T02090156  RH  075%=      5-min Rain = 0
KHA1 221550Z 18004KT 21/16 A2998 RMK A01 T02090157  RH  075%=      5-min Rain = 0
KHA1 221555Z 22004KT 21/16 A2999 RMK A01 T02090159  RH  077%=      5-min Rain = 0
KHA1 221600Z 22002KT 21/16 A2999 RMK A01 T02100160  RH  076%=      5-min Rain = 0
KHA1 221605Z 19005KT 21/16 A2999 RMK A01 T02120159  RH  075%=      5-min Rain = 0
KHA1 221610Z 21004KT 21/16 A2999 RMK A01 T02100157  RH  075%=      5-min Rain = 0
KHA1 221615Z 23002KT 21/16 A2999 RMK A01 T02120155  RH  073%=      5-min Rain = 0
KHA1 221620Z 19005G10KT 22/16 A2999 RMK A01 T02160160  RH  074%=      5-min Rain = 0
KHA1 221625Z 20005KT 22/16 A2999 RMK A01 T02170158  RH  073%=      5-min Rain = 0
KHA1 221630Z 21004KT 22/16 A2999 RMK A01 T02210163  RH  073%=      5-min Rain = 0
KHA1 221635Z 19007KT 22/16 A30 RMK A01 T02220161  RH  072%=      5-min Rain = 0
KHA1 221640Z 19009KT 22/16 A30 RMK A01 T02210161  RH  072%=      5-min Rain = 0
KHA1 221645Z 19007G12KT 22/16 A30 RMK A01 T02220160  RH  071%=      5-min Rain = 0
KHA1 221650Z 18006KT 22/16 A30 RMK A01 T02240158  RH  069%=      5-min Rain = 0
KHA1 221655Z 21007G12KT 23/16 A30 RMK A01 T02290163  RH  070%=      5-min Rain = 0
KHA1 221700Z 20007G13KT 23/16 A30 RMK A01 T02290162  RH  069%=      5-min Rain = 0
KHA1 221705Z 21006KT 23/16 A30 RMK A01 T02290163  RH  069%=      5-min Rain = 0
KHA1 221710Z 21006G11KT 23/16 A30 RMK A01 T02280160  RH  068%=      5-min Rain = 0
KHA1 221715Z 20006G13KT 23/16 A30 RMK A01 T02310162  RH  069%=      5-min Rain = 0
KHA1 221720Z 19005KT 23/16 A30 RMK A01 T02330159  RH  066%=      5-min Rain = 0
KHA1 221725Z 20007KT 23/16 A30 RMK A01 T02340161  RH  066%=      5-min Rain = 0
KHA1 221730Z 26003KT 24/16 A30 RMK A01 T02360157  RH  064%=      5-min Rain = 0
KHA1 221735Z 19006G11KT 24/16 A30 RMK A01 T02380160  RH  064%=      5-min Rain = 0
KHA1 221740Z 18006KT 24/16 A30 RMK A01 T02370158  RH  064%=      5-min Rain = 0
KHA1 221745Z 24004KT 24/16 A30 RMK A01 T02360161  RH  066%=      5-min Rain = 0
KHA1 221750Z 19006KT 24/16 A2999 RMK A01 T02370163  RH  066%=      5-min Rain = 0
KHA1 221755Z 17005KT 23/16 A2999 RMK A01 T02330155  RH  064%=      5-min Rain = 0
KHA1 221800Z 12004KT 23/15 A2999 RMK A01 T02340154  RH  063%=      5-min Rain = 0
KHA1 221805Z 18005KT 23/16 A30 RMK A01 T02320157  RH  066%=      5-min Rain = 0
KHA1 221810Z 16004KT 23/16 A30 RMK A01 T02330157  RH  065%=      5-min Rain = 0
KHA1 221815Z 19003G9KT 24/16 A2999 RMK A01 T02360161  RH  066%=      5-min Rain = 0
KHA1 221820Z 15004KT 24/16 A2999 RMK A01 T02370157  RH  064%=      5-min Rain = 0
KHA1 221825Z 20005KT 24/17 A2999 RMK A01 T02410165  RH  065%=      5-min Rain = 0
KHA1 221830Z 19002KT 24/16 A2999 RMK A01 T02380157  RH  063%=      5-min Rain = 0
KHA1 221835Z 14002KT 24/16 A2999 RMK A01 T02400156  RH  062%=      5-min Rain = 0
KHA1 221840Z 17003KT 24/16 A2999 RMK A01 T02380156  RH  063%=      5-min Rain = 0
KHA1 221845Z 17002KT 24/16 A2999 RMK A01 T02360155  RH  063%=      5-min Rain = 0
KHA1 221850Z 28002KT 24/16 A2999 RMK A01 T02380158  RH  064%=      5-min Rain = 0
KHA1 221855Z 24002KT 24/16 A2999 RMK A01 T02400159  RH  063%=      5-min Rain = 0
KHA1 221900Z 21002KT 24/16 A2999 RMK A01 T02400161  RH  064%=      5-min Rain = 0
KHA1 221905Z 12003KT 24/15 A2999 RMK A01 T02430154  RH  060%=      5-min Rain = 0
KHA1 221910Z 16005KT 24/15 A2999 RMK A01 T02430153  RH  060%=      5-min Rain = 0
KHA1 221915Z 21003KT 24/16 A2999 RMK A01 T02420155  RH  061%=      5-min Rain = 0
KHA1 221920Z 11003KT 25/15 A2998 RMK A01 T02460154  RH  059%=      5-min Rain = 0
KHA1 221925Z 15004KT 25/16 A2998 RMK A01 T02470158  RH  060%=      5-min Rain = 0
KHA1 221930Z 16006KT 24/16 A2998 RMK A01 T02430156  RH  061%=      5-min Rain = 0
KHA1 221935Z 16006KT 24/16 A2998 RMK A01 T02420157  RH  062%=      5-min Rain = 0
KHA1 221940Z 14003G8KT 24/16 A2998 RMK A01 T02440156  RH  061%=      5-min Rain = 0
KHA1 221945Z 13005KT 24/16 A2998 RMK A01 T02440158  RH  062%=      5-min Rain = 0
KHA1 221950Z 13006KT 24/16 A2998 RMK A01 T02420156  RH  061%=      5-min Rain = 0
KHA1 221955Z 14005KT 24/16 A2998 RMK A01 T02410157  RH  062%=      5-min Rain = 0
KHA1 222000Z 14004KT 24/16 A2998 RMK A01 T02440160  RH  062%=      5-min Rain = 0
KHA1 222005Z 13006KT 24/16 A2998 RMK A01 T02430157  RH  062%=      5-min Rain = 0
KHA1 222010Z 13005KT 24/16 A2998 RMK A01 T02430156  RH  061%=      5-min Rain = 0
KHA1 222015Z 10004KT 24/16 A2999 RMK A01 T02410156  RH  061%=      5-min Rain = 0
KHA1 222020Z 10003KT 24/16 A2998 RMK A01 T02430159  RH  062%=      5-min Rain = 0
KHA1 222025Z 13003G8KT 24/16 A2998 RMK A01 T02430162  RH  063%=      5-min Rain = 0
KHA1 222030Z 14004KT 24/16 A2998 RMK A01 T02420161  RH  063%=      5-min Rain = 0
KHA1 222035Z 12003KT 24/16 A2998 RMK A01 T02440163  RH  064%=      5-min Rain = 0
KHA1 222040Z 12004KT 25/17 A2998 RMK A01 T02450165  RH  064%=      5-min Rain = 0
KHA1 222045Z 10007G12KT 24/17 A2997 RMK A01 T02430166  RH  065%=      5-min Rain = 0
KHA1 222050Z 08008KT 24/17 A2997 RMK A01 T02390167  RH  067%=      5-min Rain = 0
KHA1 222055Z 09006KT 24/17 A2997 RMK A01 T02390168  RH  067%=      5-min Rain = 0
KHA1 222100Z 08007G12KT 24/17 A2997 RMK A01 T02390166  RH  067%=      5-min Rain = 0
KHA1 222105Z 10007KT 24/17 A2997 RMK A01 T02390167  RH  067%=      5-min Rain = 0
KHA1 222110Z 10006KT 24/17 A2997 RMK A01 T02380168  RH  068%=      5-min Rain = 0
KHA1 222115Z 10005KT 24/17 A2997 RMK A01 T02380168  RH  068%=      5-min Rain = 0
KHA1 222120Z 09006KT 24/17 A2996 RMK A01 T02390169  RH  068%=      5-min Rain = 0
KHA1 222125Z 09006KT 24/17 A2996 RMK A01 T02390169  RH  068%=      5-min Rain = 0
KHA1 222130Z 09007G12KT 24/17 A2996 RMK A01 T02380168  RH  068%=      5-min Rain = 0
KHA1 222135Z 09007KT 24/17 A2996 RMK A01 T02350167  RH  069%=      5-min Rain = 0
KHA1 222140Z 09008KT 23/17 A2996 RMK A01 T02340166  RH  069%=      5-min Rain = 0
KHA1 222145Z 09005G11KT 24/17 A2996 RMK A01 T02360167  RH  069%=      5-min Rain = 0
KHA1 222150Z 11006KT 24/17 A2996 RMK A01 T02370168  RH  068%=      5-min Rain = 0
KHA1 222155Z 11008KT 24/16 A2996 RMK A01 T02360164  RH  067%=      5-min Rain = 0
KHA1 222200Z 11009KT 24/16 A2996 RMK A01 T02360163  RH  067%=      5-min Rain = 0
KHA1 222205Z 11007KT 24/16 A2996 RMK A01 T02350163  RH  067%=      5-min Rain = 0
KHA1 222210Z 12008KT 23/16 A2996 RMK A01 T02340162  RH  067%=      5-min Rain = 0
KHA1 222215Z 11008KT 23/16 A2996 RMK A01 T02330161  RH  067%=      5-min Rain = 0
KHA1 222220Z 09006KT 23/16 A2996 RMK A01 T02330164  RH  068%=      5-min Rain = 0
KHA1 222225Z 09006G11KT 23/17 A2996 RMK A01 T02330167  RH  070%=      5-min Rain = 0
KHA1 222230Z 09006KT 23/17 A2996 RMK A01 T02330167  RH  070%=      5-min Rain = 0
KHA1 222235Z 08006KT 23/17 A2996 RMK A01 T02330168  RH  070%=      5-min Rain = 0
KHA1 222240Z 08006KT 23/17 A2996 RMK A01 T02320167  RH  070%=      5-min Rain = 0
KHA1 222245Z 08007KT 23/17 A2997 RMK A01 T02320166  RH  070%=      5-min Rain = 0
KHA1 222250Z 09006G11KT 23/17 A2997 RMK A01 T02320166  RH  070%=      5-min Rain = 0
KHA1 222255Z 09006G12KT 23/17 A2997 RMK A01 T02320166  RH  070%=      5-min Rain = 0
KHA1 222300Z 09007G12KT 23/17 A2997 RMK A01 T02310165  RH  070%=      5-min Rain = 0
KHA1 222305Z 09006KT 23/17 A2997 RMK A01 T02300166  RH  070%=      5-min Rain = 0
KHA1 222310Z 09006KT 23/17 A2997 RMK A01 T02300166  RH  070%=      5-min Rain = 0
KHA1 222315Z 09006KT 23/17 A2997 RMK A01 T02290165  RH  070%=      5-min Rain = 0
KHA1 222320Z 09007KT 23/16 A2997 RMK A01 T02290164  RH  070%=      5-min Rain = 0
KHA1 222325Z 08005KT 23/17 A2997 RMK A01 T02290165  RH  071%=      5-min Rain = 0
KHA1 222330Z 08007KT 23/17 A2997 RMK A01 T02280165  RH  071%=      5-min Rain = 0
KHA1 222335Z 08008KT 23/16 A2997 RMK A01 T02270163  RH  070%=      5-min Rain = 0
KHA1 222340Z 08007KT 23/16 A2996 RMK A01 T02260163  RH  071%=      5-min Rain = 0
KHA1 222345Z 08007KT 23/16 A2997 RMK A01 T02260163  RH  071%=      5-min Rain = 0
KHA1 222350Z 08006KT 23/16 A2997 RMK A01 T02250162  RH  071%=      5-min Rain = 0
KHA1 222355Z 08006KT 23/16 A2997 RMK A01 T02250162  RH  071%=      5-min Rain = 0
KHA1 230000Z 08007KT 22/16 A2997 RMK A01 T02240161  RH  071%=      5-min Rain = 0
KHA1 230005Z 08006KT 22/16 A2996 RMK A01 T02240162  RH  071%=      5-min Rain = 0
KHA1 230010Z 09006KT 22/16 A2996 RMK A01 T02240161  RH  071%=      5-min Rain = 0
KHA1 230015Z 08007KT 22/16 A2996 RMK A01 T02230161  RH  071%=      5-min Rain = 0
KHA1 230020Z 09006KT 22/16 A2996 RMK A01 T02230162  RH  071%=      5-min Rain = 0
KHA1 230025Z 09006KT 22/16 A2995 RMK A01 T02230161  RH  071%=      5-min Rain = 0
KHA1 230030Z 09006KT 22/16 A2995 RMK A01 T02220161  RH  071%=      5-min Rain = 0
KHA1 230035Z 10007KT 22/16 A2996 RMK A01 T02220160  RH  071%=      5-min Rain = 0
KHA1 230040Z 10008KT 22/16 A2996 RMK A01 T02220159  RH  071%=      5-min Rain = 0
KHA1 230045Z 09008KT 22/16 A2996 RMK A01 T02220158  RH  071%=      5-min Rain = 0
KHA1 230050Z 09008G13KT 22/16 A2996 RMK A01 T02210158  RH  071%=      5-min Rain = 0
KHA1 230055Z 09008KT 22/16 A2995 RMK A01 T02210158  RH  071%=      5-min Rain = 0
KHA1 230100Z 08007G12KT 22/16 A2995 RMK A01 T02200157  RH  071%=      5-min Rain = 0
KHA1 230105Z 08007KT 22/16 A2995 RMK A01 T02200158  RH  071%=      5-min Rain = 0
KHA1 230110Z 09008G13KT 22/16 A2996 RMK A01 T02200157  RH  071%=      5-min Rain = 0
KHA1 230115Z 09008G13KT 22/16 A2996 RMK A01 T02190157  RH  071%=      5-min Rain = 0
KHA1 230120Z 09008KT 22/16 A2996 RMK A01 T02190156  RH  071%=      5-min Rain = 0
KHA1 230125Z 09008G13KT 22/16 A2996 RMK A01 T02190156  RH  071%=      5-min Rain = 0
KHA1 230130Z 09008KT 22/16 A2996 RMK A01 T02190157  RH  071%=      5-min Rain = 0
KHA1 230135Z 10007KT 22/16 A2996 RMK A01 T02180157  RH  071%=      5-min Rain = 0
KHA1 230140Z 09008KT 22/16 A2995 RMK A01 T02170157  RH  072%=      5-min Rain = 0
KHA1 230145Z 10008KT 22/16 A2995 RMK A01 T02160157  RH  072%=      5-min Rain = 0
KHA1 230150Z 10007KT 22/16 A2995 RMK A01 T02160157  RH  073%=      5-min Rain = 0
KHA1 230155Z 11007KT 22/16 A2996 RMK A01 T02150157  RH  073%=      5-min Rain = 0
KHA1 230200Z 11006KT 21/16 A2996 RMK A01 T02140158  RH  074%=      5-min Rain = 0
KHA1 230205Z 11005KT 21/16 A2996 RMK A01 T02140158  RH  074%=      5-min Rain = 0
KHA1 230210Z 10004KT 21/16 A2996 RMK A01 T02130158  RH  074%=      5-min Rain = 0
KHA1 230215Z 10005KT 21/16 A2997 RMK A01 T02130158  RH  074%=      5-min Rain = 0
KHA1 230220Z 10004KT 21/16 A2997 RMK A01 T02120158  RH  075%=      5-min Rain = 0
KHA1 230225Z 10003KT 21/16 A2997 RMK A01 T02120159  RH  076%=      5-min Rain = 0
KHA1 230230Z 10004KT 21/16 A2997 RMK A01 T02110158  RH  075%=      5-min Rain = 0
KHA1 230235Z 10004KT 21/16 A2997 RMK A01 T02120158  RH  075%=      5-min Rain = 0
KHA1 230240Z 10004KT 21/16 A2998 RMK A01 T02120158  RH  075%=      5-min Rain = 0
KHA1 230245Z 10005KT 21/16 A2998 RMK A01 T02130157  RH  074%=      5-min Rain = 0
KHA1 230250Z 10005KT 21/16 A2998 RMK A01 T02130156  RH  073%=      5-min Rain = 0
KHA1 230255Z 10006KT 21/16 A2998 RMK A01 T02140155  RH  073%=      5-min Rain = 0
KHA1 230300Z 11006KT 21/16 A2998 RMK A01 T02140155  RH  073%=      5-min Rain = 0
KHA1 230305Z 11006KT 21/16 A2999 RMK A01 T02140155  RH  073%=      5-min Rain = 0
KHA1 230310Z 11006KT 21/16 A2999 RMK A01 T02130156  RH  073%=      5-min Rain = 0
KHA1 230315Z 11006KT 21/16 A2998 RMK A01 T02130155  RH  073%=      5-min Rain = 0
KHA1 230320Z 11007KT 21/16 A2998 RMK A01 T02120155  RH  073%=      5-min Rain = 0
KHA1 230325Z 11008KT 21/16 A2998 RMK A01 T02120155  RH  073%=      5-min Rain = 0
KHA1 230330Z 12008KT 21/16 A2998 RMK A01 T02120155  RH  073%=      5-min Rain = 0
KHA1 230335Z 12008KT 21/16 A2998 RMK A01 T02110155  RH  074%=      5-min Rain = 0
KHA1 230340Z 12007KT 21/16 A2998 RMK A01 T02100155  RH  074%=      5-min Rain = 0
KHA1 230345Z 12008KT 21/15 A2998 RMK A01 T02090154  RH  074%=      5-min Rain = 0
KHA1 230350Z 12008KT 21/15 A2998 RMK A01 T02090154  RH  074%=      5-min Rain = 0
KHA1 230355Z 12008KT 21/15 A2998 RMK A01 T02080154  RH  075%=      5-min Rain = 0
KHA1 230400Z 12008KT 21/15 A2998 RMK A01 T02070154  RH  075%=      5-min Rain = 0
KHA1 230405Z 12009KT 21/15 A2997 RMK A01 T02060154  RH  076%=      5-min Rain = 0
KHA1 230410Z 12008KT 21/15 A2997 RMK A01 T02050154  RH  076%=      5-min Rain = 0
KHA1 230415Z 12008KT 20/15 A2997 RMK A01 T02040154  RH  076%=      5-min Rain = 0
KHA1 230420Z 12008KT 20/15 A2997 RMK A01 T02040154  RH  076%=      5-min Rain = 0
KHA1 230425Z 12008KT 20/15 A2997 RMK A01 T02030154  RH  077%=      5-min Rain = 0
KHA1 230430Z 12009KT 20/15 A2997 RMK A01 T02020154  RH  077%=      5-min Rain = 0
KHA1 230435Z 12010KT 20/15 A2997 RMK A01 T02020153  RH  077%=      5-min Rain = 0
KHA1 230440Z 12010KT 20/15 A2997 RMK A01 T02020154  RH  077%=      5-min Rain = 0
KHA1 230445Z 12010KT 20/15 A2997 RMK A01 T02010154  RH  077%=      5-min Rain = 0
KHA1 230450Z 12009KT 20/15 A2997 RMK A01 T02020153  RH  077%=      5-min Rain = 0
KHA1 230455Z 12009KT 20/15 A2996 RMK A01 T02020153  RH  077%=      5-min Rain = 0

Page generated in 0.0209 seconds.